»·PEaware :: UAL1928 KPDX-KSLC

UAL1928 :: KPDX-KSLC

FLIGHT INFORMATION

Flight Status: Arrived
Operator:
United Airlines
More flights by this operator :: More flights under this callsign
Pilot: Chris C. (10181)
Aircraft: BOEING 737-200
(B732)
More flights by this aircraft type
Origin: KPDX Portland Intl
United States
Destination: KSLC Salt Lake City Intl
United States
More flights between these airports :: More routes between these airports
Route: PTLD1 BTG J15 BOI V4 BYI BEARR5
File this flight plan on PilotEdge
Remarks:
Altitude:
(Current/Filed)
29,000ft
Speed:
(Current/Filed)
480kts
Departed: 19-Nov-19 10:01 AM
Arrived: 19-Nov-19 11:30 AM
Distance/Time
Traveled:
546nm/1:29
Distance/Time
To Go:
Arrived

Flight Plot

Page will automatically refresh every two minutes.

Flight plan parsing failed; only flown route is shown


Map Options




Map Legend


Flown Route
Filed Route
Departure Airport
Arrival Airport
Navaid (VOR, NDB)
Fix

Horizontal Profiles

Position Reports

Time Latitude Longitude Heading Altitude Ground
Speed
19-Nov-19 09:34 45.589844 -122.590574 225 38ft 0kts
19-Nov-19 09:35 45.589844 -122.590574 225 38ft 0kts
19-Nov-19 09:36 45.589844 -122.590574 225 38ft 0kts
19-Nov-19 09:37 45.589844 -122.590574 225 38ft 0kts
19-Nov-19 09:38 45.589844 -122.590574 225 38ft 0kts
19-Nov-19 09:39 45.589844 -122.590574 225 38ft 0kts
19-Nov-19 09:40 45.589844 -122.590574 225 38ft 0kts
19-Nov-19 09:41 45.589844 -122.590574 225 38ft 0kts
19-Nov-19 09:42 45.589844 -122.590574 225 38ft 0kts
19-Nov-19 09:43 45.589844 -122.590574 225 38ft 0kts
19-Nov-19 09:44 45.589844 -122.590574 225 38ft 0kts
19-Nov-19 09:45 45.589844 -122.590574 225 38ft 0kts
19-Nov-19 09:46 45.589844 -122.590574 225 38ft 0kts
19-Nov-19 09:47 45.589844 -122.590574 225 38ft 0kts
19-Nov-19 09:48 45.589844 -122.590574 225 38ft 0kts
19-Nov-19 09:49 45.589844 -122.590573 225 38ft 0kts
19-Nov-19 09:50 45.590213 -122.590037 234 38ft 2kts
19-Nov-19 09:51 45.590230 -122.589329 302 38ft 1kts
19-Nov-19 09:52 45.590212 -122.589289 300 38ft 0kts
19-Nov-19 09:53 45.590212 -122.589289 300 38ft 0kts
19-Nov-19 09:54 45.590212 -122.589289 300 38ft 0kts
19-Nov-19 09:55 45.590212 -122.589289 300 38ft 0kts
19-Nov-19 09:56 45.590925 -122.591030 298 38ft 8kts
19-Nov-19 09:57 45.592463 -122.595004 298 38ft 15kts
19-Nov-19 09:58 45.593978 -122.597966 11 38ft 9kts
19-Nov-19 09:59 45.594411 -122.597582 42 38ft 0kts
19-Nov-19 10:00 45.590364 -122.584163 118 38ft 136kts
19-Nov-19 10:01 45.567751 -122.527733 119 1888ft 179kts
19-Nov-19 10:02 45.543814 -122.457899 119 3545ft 213kts
19-Nov-19 10:03 45.516950 -122.383140 117 6218ft 204kts
19-Nov-19 10:04 45.486692 -122.303218 119 7847ft 250kts
19-Nov-19 10:05 45.452760 -122.210118 117 9537ft 292kts
19-Nov-19 10:06 45.405701 -122.108917 129 11168ft 330kts
19-Nov-19 10:07 45.342088 -122.008979 134 12906ft 356kts
19-Nov-19 10:08 45.270133 -121.903949 135 14902ft 371kts
19-Nov-19 10:09 45.197464 -121.798920 135 16849ft 379kts
19-Nov-19 10:10 45.117206 -121.698386 141 18555ft 388kts
19-Nov-19 10:11 45.063848 -121.566014 105 19969ft 402kts
19-Nov-19 10:12 45.034896 -121.410560 104 21286ft 412kts
19-Nov-19 10:13 45.006441 -121.251755 104 22467ft 421kts
19-Nov-19 10:14 44.978509 -121.089203 104 23452ft 430kts
19-Nov-19 10:15 44.949141 -120.922730 106 24436ft 437kts
19-Nov-19 10:16 44.917920 -120.755928 106 25502ft 442kts
19-Nov-19 10:17 44.886194 -120.588589 110 26370ft 447kts
19-Nov-19 10:18 44.839242 -120.424450 115 27128ft 453kts
19-Nov-19 10:19 44.790538 -120.261284 115 27878ft 456kts
19-Nov-19 10:20 44.741442 -120.095285 114 28510ft 461kts
19-Nov-19 10:21 44.696545 -119.923631 110 28855ft 473kts
19-Nov-19 10:22 44.656724 -119.743961 108 28845ft 485kts
19-Nov-19 10:23 44.611102 -119.565988 114 28844ft 481kts
19-Nov-19 10:24 44.559926 -119.392025 114 28844ft 481kts
19-Nov-19 10:25 44.509610 -119.220780 115 28844ft 479kts
19-Nov-19 10:26 44.458895 -119.047850 115 28844ft 478kts
19-Nov-19 10:27 44.409254 -118.874603 115 28844ft 478kts
19-Nov-19 10:28 44.362692 -118.700113 114 28844ft 480kts
19-Nov-19 10:29 44.317041 -118.524201 115 28844ft 480kts
19-Nov-19 10:30 44.265617 -118.352261 118 28845ft 479kts
19-Nov-19 10:31 44.212132 -118.185295 119 28834ft 478kts
19-Nov-19 10:32 44.156552 -118.015547 119 28824ft 478kts
19-Nov-19 10:33 44.101266 -117.846771 119 28835ft 478kts
19-Nov-19 10:34 44.046224 -117.678236 119 28851ft 478kts
19-Nov-19 10:35 43.991111 -117.509446 119 28854ft 479kts
19-Nov-19 10:36 43.935922 -117.340219 119 28852ft 479kts
19-Nov-19 10:37 43.881682 -117.173260 119 28854ft 479kts
19-Nov-19 10:38 43.827631 -117.004160 119 28853ft 480kts
19-Nov-19 10:39 43.775708 -116.832005 120 28849ft 482kts
19-Nov-19 10:40 43.722226 -116.662057 123 28844ft 480kts
19-Nov-19 10:41 43.665593 -116.494064 123 28844ft 480kts
19-Nov-19 10:42 43.606944 -116.327551 125 28840ft 480kts
19-Nov-19 10:43 43.544478 -116.166050 134 28835ft 467kts
19-Nov-19 10:45 43.466114 -116.024703 138 28832ft 462kts
19-Nov-19 10:46 43.386598 -115.886320 137 28819ft 462kts
19-Nov-19 10:47 43.306719 -115.747402 138 28816ft 461kts
19-Nov-19 10:48 43.223326 -115.614646 140 28817ft 458kts
19-Nov-19 10:49 43.139322 -115.483393 142 28816ft 455kts
19-Nov-19 10:50 43.051741 -115.358154 143 28817ft 454kts
19-Nov-19 10:51 42.973086 -115.225696 120 28814ft 481kts
19-Nov-19 10:52 42.930941 -115.050801 114 28800ft 487kts
19-Nov-19 10:53 42.895620 -114.874380 112 28790ft 488kts
19-Nov-19 10:54 42.858752 -114.695831 114 28789ft 487kts
19-Nov-19 10:55 42.810941 -114.524206 120 28790ft 482kts
19-Nov-19 10:56 42.755287 -114.358308 124 28790ft 479kts
19-Nov-19 10:57 42.694548 -114.196499 125 28787ft 478kts
19-Nov-19 10:58 42.634250 -114.035792 125 28773ft 478kts
19-Nov-19 10:59 42.579554 -113.869719 128 28768ft 475kts
19-Nov-19 11:00 42.493408 -113.744754 150 28772ft 447kts
19-Nov-19 11:01 42.400940 -113.629980 145 28771ft 453kts
19-Nov-19 11:02 42.314393 -113.503614 138 28771ft 462kts
19-Nov-19 11:03 42.231959 -113.370574 138 28771ft 462kts
19-Nov-19 11:04 42.145022 -113.244179 144 28770ft 455kts
19-Nov-19 11:05 42.056166 -113.122570 143 28608ft 445kts
19-Nov-19 11:05 41.985049 -113.025078 143 26640ft 435kts
19-Nov-19 11:06 41.901238 -112.912370 143 24545ft 417kts
19-Nov-19 11:08 41.827708 -112.814253 143 22757ft 401kts
19-Nov-19 11:08 41.762336 -112.727478 143 21090ft 389kts
19-Nov-19 11:09 41.685716 -112.627204 143 19100ft 376kts
19-Nov-19 11:10 41.609718 -112.529371 143 18845ft 397kts
19-Nov-19 11:11 41.525763 -112.423792 143 18849ft 429kts
19-Nov-19 11:12 41.431658 -112.318770 146 18848ft 448kts
19-Nov-19 11:13 41.339493 -112.219538 151 18835ft 382kts
19-Nov-19 11:14 41.251586 -112.172065 171 18064ft 323kts
19-Nov-19 11:15 41.164168 -112.140150 171 15972ft 323kts
19-Nov-19 11:16 41.077883 -112.109767 171 14313ft 311kts
19-Nov-19 11:17 40.995959 -112.080881 171 13058ft 290kts
19-Nov-19 11:18 40.922136 -112.053450 171 11796ft 278kts
19-Nov-19 11:19 40.848107 -112.041106 182 10413ft 267kts
19-Nov-19 11:20 40.773129 -112.047834 191 9030ft 261kts
19-Nov-19 11:21 40.696621 -112.057449 191 9020ft 284kts
19-Nov-19 11:22 40.615726 -112.055999 181 9017ft 290kts
19-Nov-19 11:23 40.548967 -112.011803 105 8982ft 302kts
19-Nov-19 11:24 40.590362 -111.943658 356 8704ft 253kts
19-Nov-19 11:25 40.650364 -111.952157 338 7092ft 201kts
19-Nov-19 11:26 40.698408 -111.963650 354 5749ft 150kts
19-Nov-19 11:27 40.737958 -111.968940 353 5016ft 140kts
19-Nov-19 11:28 40.776616 -111.973348 354 4239ft 129kts
19-Nov-19 11:29 40.791232 -111.975289 334 4236ft 19kts
19-Nov-19 11:30 40.792126 -111.976769 270 4236ft 0kts
19-Nov-19 11:31 40.792126 -111.976776 270 4236ft 1kts
19-Nov-19 11:32 40.788609 -111.976933 175 4236ft 14kts
19-Nov-19 11:33 40.785818 -111.977572 228 4236ft 4kts
19-Nov-19 11:34 40.785571 -111.977953 229 4236ft 0kts
19-Nov-19 11:35 40.785571 -111.977953 229 4236ft 0kts
19-Nov-19 11:36 40.785571 -111.977953 229 4236ft 0kts
19-Nov-19 11:37 40.785571 -111.977953 229 4236ft 0kts
19-Nov-19 11:38 40.785571 -111.977953 229 4236ft 0kts
19-Nov-19 11:39 40.785571 -111.977953 229 4236ft 0kts

Navigation Log

Ident Type
Flight plan parsing failed, navigation log unavailable